Terminal Aerodrome Forecast
Issued by NWS

Home | Current Version | Previous Version | Graphics & Text | Print | Product List | Glossary On
Versions: 1 2 3 4 5 6 7 8 9 10 11 12 13 14 15 16 17 18
000
FTUS43 KOAX 101100
TAFCDR
TAF
KCDR 101132Z 1012/1112 VRB05KT P6SM OVC015
     FM101500 25007KT P6SM SCT120 SCT250
     FM102000 31012KT P6SM VCTS BKN050CB BKN120
     FM110300 VRB05KT P6SM BKN100=

USA.gov is the U.S. government's official web portal to all federal, state and local government web resources and services.